sensor_id;sensor_type;location;lat;lon;timestamp;temperature;humidity
16829;DHT22;8531;48.078;11.968;2023-01-05T00:02:24;9.80;99.90
16829;DHT22;8531;48.078;11.968;2023-01-05T00:04:50;9.90;99.90
16829;DHT22;8531;48.078;11.968;2023-01-05T00:07:15;9.90;99.90
16829;DHT22;8531;48.078;11.968;2023-01-05T00:09:41;10.00;99.90
16829;DHT22;8531;48.078;11.968;2023-01-05T00:12:08;10.00;99.90
16829;DHT22;8531;48.078;11.968;2023-01-05T00:14:53;10.10;99.90
16829;DHT22;8531;48.078;11.968;2023-01-05T00:17:37;10.20;99.90
16829;DHT22;8531;48.078;11.968;2023-01-05T00:20:21;10.20;99.90
16829;DHT22;8531;48.078;11.968;2023-01-05T00:23:06;10.20;99.90
16829;DHT22;8531;48.078;11.968;2023-01-05T00:25:36;10.20;99.90
16829;DHT22;8531;48.078;11.968;2023-01-05T00:28:03;10.30;99.90
16829;DHT22;8531;48.078;11.968;2023-01-05T00:30:39;10.30;99.90
16829;DHT22;8531;48.078;11.968;2023-01-05T00:33:11;10.30;99.90
16829;DHT22;8531;48.078;11.968;2023-01-05T00:35:38;10.30;99.90
16829;DHT22;8531;48.078;11.968;2023-01-05T00:38:04;10.30;99.90
16829;DHT22;8531;48.078;11.968;2023-01-05T00:40:30;10.30;99.90
16829;DHT22;8531;48.078;11.968;2023-01-05T00:42:56;10.30;99.90
16829;DHT22;8531;48.078;11.968;2023-01-05T00:45:21;10.30;99.90
16829;DHT22;8531;48.078;11.968;2023-01-05T00:47:47;10.30;99.90
16829;DHT22;8531;48.078;11.968;2023-01-05T00:50:15;10.30;99.90
16829;DHT22;8531;48.078;11.968;2023-01-05T00:52:41;10.30;99.90
16829;DHT22;8531;48.078;11.968;2023-01-05T00:55:07;10.30;99.90
16829;DHT22;8531;48.078;11.968;2023-01-05T00:57:33;10.30;99.90
16829;DHT22;8531;48.078;11.968;2023-01-05T00:59:58;10.30;99.90
16829;DHT22;8531;48.078;11.968;2023-01-05T01:02:26;10.30;99.90
16829;DHT22;8531;48.078;11.968;2023-01-05T01:04:52;10.30;99.90
16829;DHT22;8531;48.078;11.968;2023-01-05T01:07:17;10.40;99.90
16829;DHT22;8531;48.078;11.968;2023-01-05T01:09:43;10.40;99.90
16829;DHT22;8531;48.078;11.968;2023-01-05T01:12:09;10.40;99.90
16829;DHT22;8531;48.078;11.968;2023-01-05T01:14:35;10.40;99.90
16829;DHT22;8531;48.078;11.968;2023-01-05T01:17:01;10.40;99.90
16829;DHT22;8531;48.078;11.968;2023-01-05T01:19:27;10.40;99.90
16829;DHT22;8531;48.078;11.968;2023-01-05T01:21:53;10.40;99.90
16829;DHT22;8531;48.078;11.968;2023-01-05T01:24:21;10.50;99.90
16829;DHT22;8531;48.078;11.968;2023-01-05T01:26:48;10.50;99.90
16829;DHT22;8531;48.078;11.968;2023-01-05T01:29:14;10.50;99.90
16829;DHT22;8531;48.078;11.968;2023-01-05T01:31:42;10.50;99.90
16829;DHT22;8531;48.078;11.968;2023-01-05T01:34:09;10.50;99.90
16829;DHT22;8531;48.078;11.968;2023-01-05T01:36:34;10.50;99.90
16829;DHT22;8531;48.078;11.968;2023-01-05T01:39:00;10.50;99.90
16829;DHT22;8531;48.078;11.968;2023-01-05T01:41:26;10.50;99.90
16829;DHT22;8531;48.078;11.968;2023-01-05T01:43:53;10.50;99.90
16829;DHT22;8531;48.078;11.968;2023-01-05T01:46:21;10.40;99.90
16829;DHT22;8531;48.078;11.968;2023-01-05T01:48:59;10.50;99.90
16829;DHT22;8531;48.078;11.968;2023-01-05T01:51:32;10.50;99.90
16829;DHT22;8531;48.078;11.968;2023-01-05T01:54:00;10.40;99.90
16829;DHT22;8531;48.078;11.968;2023-01-05T01:56:32;10.40;99.90
16829;DHT22;8531;48.078;11.968;2023-01-05T01:58:59;10.40;99.90
16829;DHT22;8531;48.078;11.968;2023-01-05T02:01:25;10.40;99.90
16829;DHT22;8531;48.078;11.968;2023-01-05T02:03:51;10.40;99.90
16829;DHT22;8531;48.078;11.968;2023-01-05T02:06:18;10.40;99.90
16829;DHT22;8531;48.078;11.968;2023-01-05T02:08:44;10.40;99.90
16829;DHT22;8531;48.078;11.968;2023-01-05T02:14:10;10.40;99.90
16829;DHT22;8531;48.078;11.968;2023-01-05T02:27:19;10.30;99.90
16829;DHT22;8531;48.078;11.968;2023-01-05T02:37:48;10.30;99.90
16829;DHT22;8531;48.078;11.968;2023-01-05T02:40:26;10.30;99.90
16829;DHT22;8531;48.078;11.968;2023-01-05T02:42:54;10.30;99.90
16829;DHT22;8531;48.078;11.968;2023-01-05T02:45:22;10.30;99.90
16829;DHT22;8531;48.078;11.968;2023-01-05T02:47:48;10.30;99.90
16829;DHT22;8531;48.078;11.968;2023-01-05T02:50:20;10.30;99.90
16829;DHT22;8531;48.078;11.968;2023-01-05T02:53:12;10.30;99.90
16829;DHT22;8531;48.078;11.968;2023-01-05T02:56:34;10.40;99.90
16829;DHT22;8531;48.078;11.968;2023-01-05T02:58:58;10.40;99.90
16829;DHT22;8531;48.078;11.968;2023-01-05T03:01:33;10.40;99.90
16829;DHT22;8531;48.078;11.968;2023-01-05T03:04:10;10.40;99.90
16829;DHT22;8531;48.078;11.968;2023-01-05T03:06:43;10.50;99.90
16829;DHT22;8531;48.078;11.968;2023-01-05T03:09:14;10.50;99.90
16829;DHT22;8531;48.078;11.968;2023-01-05T03:12:01;10.50;99.90
16829;DHT22;8531;48.078;11.968;2023-01-05T03:15:05;10.50;99.90
16829;DHT22;8531;48.078;11.968;2023-01-05T03:17:42;10.50;99.90
16829;DHT22;8531;48.078;11.968;2023-01-05T03:20:11;10.50;99.90
16829;DHT22;8531;48.078;11.968;2023-01-05T03:22:38;10.40;99.90
16829;DHT22;8531;48.078;11.968;2023-01-05T03:25:24;10.40;99.90
16829;DHT22;8531;48.078;11.968;2023-01-05T03:28:48;10.30;99.90
16829;DHT22;8531;48.078;11.968;2023-01-05T03:31:46;10.30;99.90
16829;DHT22;8531;48.078;11.968;2023-01-05T03:38:35;10.30;99.90
16829;DHT22;8531;48.078;11.968;2023-01-05T03:40:42;10.30;99.90
16829;DHT22;8531;48.078;11.968;2023-01-05T03:43:08;10.30;99.90
16829;DHT22;8531;48.078;11.968;2023-01-05T03:45:44;10.30;99.90
16829;DHT22;8531;48.078;11.968;2023-01-05T03:48:10;10.20;99.90
16829;DHT22;8531;48.078;11.968;2023-01-05T03:50:36;10.30;99.90
16829;DHT22;8531;48.078;11.968;2023-01-05T03:53:02;10.30;99.90
16829;DHT22;8531;48.078;11.968;2023-01-05T03:55:28;10.30;99.90
16829;DHT22;8531;48.078;11.968;2023-01-05T03:57:54;10.30;99.90
16829;DHT22;8531;48.078;11.968;2023-01-05T04:00:20;10.30;99.90
16829;DHT22;8531;48.078;11.968;2023-01-05T04:02:46;10.40;99.90
16829;DHT22;8531;48.078;11.968;2023-01-05T04:05:12;10.40;99.90
16829;DHT22;8531;48.078;11.968;2023-01-05T04:07:37;10.40;99.90
16829;DHT22;8531;48.078;11.968;2023-01-05T04:10:04;10.50;99.90
16829;DHT22;8531;48.078;11.968;2023-01-05T04:12:30;10.40;99.90
16829;DHT22;8531;48.078;11.968;2023-01-05T04:14:55;10.50;99.90
16829;DHT22;8531;48.078;11.968;2023-01-05T04:17:21;10.50;99.90
16829;DHT22;8531;48.078;11.968;2023-01-05T04:19:47;10.50;99.90
16829;DHT22;8531;48.078;11.968;2023-01-05T04:22:12;10.60;99.90
16829;DHT22;8531;48.078;11.968;2023-01-05T04:24:38;10.50;99.90
16829;DHT22;8531;48.078;11.968;2023-01-05T04:27:04;10.60;99.90
16829;DHT22;8531;48.078;11.968;2023-01-05T04:29:29;10.60;99.90
16829;DHT22;8531;48.078;11.968;2023-01-05T04:31:55;10.70;99.90
16829;DHT22;8531;48.078;11.968;2023-01-05T04:34:21;10.70;99.90
16829;DHT22;8531;48.078;11.968;2023-01-05T04:36:46;10.70;99.90
16829;DHT22;8531;48.078;11.968;2023-01-05T04:39:13;10.70;99.90
16829;DHT22;8531;48.078;11.968;2023-01-05T04:41:39;10.70;99.90
16829;DHT22;8531;48.078;11.968;2023-01-05T04:44:05;10.70;99.90
16829;DHT22;8531;48.078;11.968;2023-01-05T04:46:31;10.70;99.90
16829;DHT22;8531;48.078;11.968;2023-01-05T04:48:57;10.70;99.90
16829;DHT22;8531;48.078;11.968;2023-01-05T04:51:22;10.70;99.90
16829;DHT22;8531;48.078;11.968;2023-01-05T04:53:48;10.70;99.90
16829;DHT22;8531;48.078;11.968;2023-01-05T04:56:14;10.70;99.90
16829;DHT22;8531;48.078;11.968;2023-01-05T04:58:40;10.80;99.90
16829;DHT22;8531;48.078;11.968;2023-01-05T05:01:06;10.70;99.90
16829;DHT22;8531;48.078;11.968;2023-01-05T05:03:31;10.70;99.90
16829;DHT22;8531;48.078;11.968;2023-01-05T05:05:57;10.70;99.90
16829;DHT22;8531;48.078;11.968;2023-01-05T05:08:22;10.70;99.90
16829;DHT22;8531;48.078;11.968;2023-01-05T05:10:48;10.70;99.90
16829;DHT22;8531;48.078;11.968;2023-01-05T05:13:14;10.70;99.90
16829;DHT22;8531;48.078;11.968;2023-01-05T05:15:40;10.70;99.90
16829;DHT22;8531;48.078;11.968;2023-01-05T05:18:05;10.70;99.90
16829;DHT22;8531;48.078;11.968;2023-01-05T05:20:31;10.70;99.90
16829;DHT22;8531;48.078;11.968;2023-01-05T05:22:57;10.70;99.90
16829;DHT22;8531;48.078;11.968;2023-01-05T05:25:22;10.70;99.90
16829;DHT22;8531;48.078;11.968;2023-01-05T05:27:48;10.70;99.90
16829;DHT22;8531;48.078;11.968;2023-01-05T05:30:14;10.70;99.90
16829;DHT22;8531;48.078;11.968;2023-01-05T05:32:39;10.70;99.90
16829;DHT22;8531;48.078;11.968;2023-01-05T05:35:05;10.70;99.90
16829;DHT22;8531;48.078;11.968;2023-01-05T05:37:31;10.80;99.90
16829;DHT22;8531;48.078;11.968;2023-01-05T05:39:57;10.80;99.90
16829;DHT22;8531;48.078;11.968;2023-01-05T05:42:22;10.70;99.90
16829;DHT22;8531;48.078;11.968;2023-01-05T05:44:48;10.80;99.90
16829;DHT22;8531;48.078;11.968;2023-01-05T05:47:14;10.70;99.90
16829;DHT22;8531;48.078;11.968;2023-01-05T05:49:39;10.70;99.90
16829;DHT22;8531;48.078;11.968;2023-01-05T05:52:05;10.80;99.90
16829;DHT22;8531;48.078;11.968;2023-01-05T05:54:30;10.70;99.90
16829;DHT22;8531;48.078;11.968;2023-01-05T05:56:56;10.70;99.90
16829;DHT22;8531;48.078;11.968;2023-01-05T05:59:22;10.70;99.90
16829;DHT22;8531;48.078;11.968;2023-01-05T06:01:47;10.80;99.90
16829;DHT22;8531;48.078;11.968;2023-01-05T06:04:13;10.70;99.90
16829;DHT22;8531;48.078;11.968;2023-01-05T06:06:39;10.70;99.90
16829;DHT22;8531;48.078;11.968;2023-01-05T06:09:05;10.70;99.90
16829;DHT22;8531;48.078;11.968;2023-01-05T06:11:31;10.70;99.90
16829;DHT22;8531;48.078;11.968;2023-01-05T06:13:56;10.70;99.90
16829;DHT22;8531;48.078;11.968;2023-01-05T06:16:22;10.70;99.90
16829;DHT22;8531;48.078;11.968;2023-01-05T06:18:47;10.70;99.90
16829;DHT22;8531;48.078;11.968;2023-01-05T06:21:13;10.70;99.90
16829;DHT22;8531;48.078;11.968;2023-01-05T06:23:39;10.70;99.90
16829;DHT22;8531;48.078;11.968;2023-01-05T06:26:04;10.70;99.90
16829;DHT22;8531;48.078;11.968;2023-01-05T06:28:30;10.70;99.90
16829;DHT22;8531;48.078;11.968;2023-01-05T06:30:56;10.60;99.90
16829;DHT22;8531;48.078;11.968;2023-01-05T06:33:21;10.60;99.90
16829;DHT22;8531;48.078;11.968;2023-01-05T06:35:47;10.60;99.90
16829;DHT22;8531;48.078;11.968;2023-01-05T06:38:13;10.60;99.90
16829;DHT22;8531;48.078;11.968;2023-01-05T06:40:40;10.60;99.90
16829;DHT22;8531;48.078;11.968;2023-01-05T06:43:10;10.60;99.90
16829;DHT22;8531;48.078;11.968;2023-01-05T06:45:35;10.60;99.90
16829;DHT22;8531;48.078;11.968;2023-01-05T06:48:01;10.60;99.90
16829;DHT22;8531;48.078;11.968;2023-01-05T06:50:28;10.60;99.90
16829;DHT22;8531;48.078;11.968;2023-01-05T06:52:55;10.60;99.90
16829;DHT22;8531;48.078;11.968;2023-01-05T06:55:20;10.60;99.90
16829;DHT22;8531;48.078;11.968;2023-01-05T06:57:46;10.50;99.90
16829;DHT22;8531;48.078;11.968;2023-01-05T07:00:13;10.50;99.90
16829;DHT22;8531;48.078;11.968;2023-01-05T07:02:39;10.50;99.90
16829;DHT22;8531;48.078;11.968;2023-01-05T07:05:05;10.50;99.90
16829;DHT22;8531;48.078;11.968;2023-01-05T07:07:31;10.50;99.90
16829;DHT22;8531;48.078;11.968;2023-01-05T07:09:57;10.50;99.90
16829;DHT22;8531;48.078;11.968;2023-01-05T07:12:23;10.50;99.90
16829;DHT22;8531;48.078;11.968;2023-01-05T07:14:48;10.50;99.90
16829;DHT22;8531;48.078;11.968;2023-01-05T07:17:14;10.50;99.90
16829;DHT22;8531;48.078;11.968;2023-01-05T07:19:39;10.50;99.90
16829;DHT22;8531;48.078;11.968;2023-01-05T07:22:05;10.50;99.90
16829;DHT22;8531;48.078;11.968;2023-01-05T07:24:31;10.50;99.90
16829;DHT22;8531;48.078;11.968;2023-01-05T07:26:58;10.50;99.90
16829;DHT22;8531;48.078;11.968;2023-01-05T07:29:24;10.50;99.90
16829;DHT22;8531;48.078;11.968;2023-01-05T07:31:50;10.50;99.90
16829;DHT22;8531;48.078;11.968;2023-01-05T07:34:19;10.50;99.90
16829;DHT22;8531;48.078;11.968;2023-01-05T07:36:45;10.50;99.90
16829;DHT22;8531;48.078;11.968;2023-01-05T07:39:11;10.50;99.90
16829;DHT22;8531;48.078;11.968;2023-01-05T07:41:37;10.50;99.90
16829;DHT22;8531;48.078;11.968;2023-01-05T07:44:03;10.60;99.90
16829;DHT22;8531;48.078;11.968;2023-01-05T07:46:29;10.50;99.90
16829;DHT22;8531;48.078;11.968;2023-01-05T07:48:55;10.60;99.90
16829;DHT22;8531;48.078;11.968;2023-01-05T07:51:20;10.60;99.90
16829;DHT22;8531;48.078;11.968;2023-01-05T07:53:46;10.60;99.90
16829;DHT22;8531;48.078;11.968;2023-01-05T07:56:13;10.60;99.90
16829;DHT22;8531;48.078;11.968;2023-01-05T07:58:39;10.60;99.90
16829;DHT22;8531;48.078;11.968;2023-01-05T08:01:07;10.60;99.90
16829;DHT22;8531;48.078;11.968;2023-01-05T08:03:33;10.60;99.90
16829;DHT22;8531;48.078;11.968;2023-01-05T08:06:24;10.60;99.90
16829;DHT22;8531;48.078;11.968;2023-01-05T08:08:49;10.60;99.90
16829;DHT22;8531;48.078;11.968;2023-01-05T08:11:16;10.60;99.90
16829;DHT22;8531;48.078;11.968;2023-01-05T08:13:43;10.60;99.90
16829;DHT22;8531;48.078;11.968;2023-01-05T08:16:25;10.60;99.90
16829;DHT22;8531;48.078;11.968;2023-01-05T08:18:51;10.60;99.90
16829;DHT22;8531;48.078;11.968;2023-01-05T08:21:17;10.60;99.90
16829;DHT22;8531;48.078;11.968;2023-01-05T08:23:42;10.60;99.90
16829;DHT22;8531;48.078;11.968;2023-01-05T08:26:12;10.60;99.90
16829;DHT22;8531;48.078;11.968;2023-01-05T08:28:39;10.60;99.90
16829;DHT22;8531;48.078;11.968;2023-01-05T08:31:14;10.70;99.90
16829;DHT22;8531;48.078;11.968;2023-01-05T08:33:41;10.70;99.90
16829;DHT22;8531;48.078;11.968;2023-01-05T08:36:17;10.70;99.90
16829;DHT22;8531;48.078;11.968;2023-01-05T08:38:49;10.70;99.90
16829;DHT22;8531;48.078;11.968;2023-01-05T08:41:20;10.70;99.90
16829;DHT22;8531;48.078;11.968;2023-01-05T08:43:51;10.70;99.90
16829;DHT22;8531;48.078;11.968;2023-01-05T08:46:18;10.70;99.90
16829;DHT22;8531;48.078;11.968;2023-01-05T08:48:50;10.70;99.90
16829;DHT22;8531;48.078;11.968;2023-01-05T08:51:17;10.70;99.90
16829;DHT22;8531;48.078;11.968;2023-01-05T08:53:43;10.70;99.90
16829;DHT22;8531;48.078;11.968;2023-01-05T08:56:09;10.70;99.90
16829;DHT22;8531;48.078;11.968;2023-01-05T08:58:38;10.70;99.90
16829;DHT22;8531;48.078;11.968;2023-01-05T09:01:14;10.70;99.90
16829;DHT22;8531;48.078;11.968;2023-01-05T09:03:41;10.70;99.90
16829;DHT22;8531;48.078;11.968;2023-01-05T09:06:08;10.60;99.90
16829;DHT22;8531;48.078;11.968;2023-01-05T09:08:36;10.60;99.90
16829;DHT22;8531;48.078;11.968;2023-01-05T09:11:06;10.50;99.90
16829;DHT22;8531;48.078;11.968;2023-01-05T09:13:32;10.50;99.90
16829;DHT22;8531;48.078;11.968;2023-01-05T09:16:04;10.40;99.90
16829;DHT22;8531;48.078;11.968;2023-01-05T09:18:31;10.30;99.90
16829;DHT22;8531;48.078;11.968;2023-01-05T09:20:56;10.10;99.90
16829;DHT22;8531;48.078;11.968;2023-01-05T09:23:22;10.10;99.90
16829;DHT22;8531;48.078;11.968;2023-01-05T09:25:48;10.10;99.90
16829;DHT22;8531;48.078;11.968;2023-01-05T09:28:14;10.00;99.90
16829;DHT22;8531;48.078;11.968;2023-01-05T09:30:39;10.00;99.90
16829;DHT22;8531;48.078;11.968;2023-01-05T09:33:05;9.90;99.90
16829;DHT22;8531;48.078;11.968;2023-01-05T09:35:31;10.00;99.90
16829;DHT22;8531;48.078;11.968;2023-01-05T09:37:56;10.00;99.90
16829;DHT22;8531;48.078;11.968;2023-01-05T09:40:22;10.00;99.90
16829;DHT22;8531;48.078;11.968;2023-01-05T09:42:48;10.00;99.90
16829;DHT22;8531;48.078;11.968;2023-01-05T09:45:23;10.00;99.90
16829;DHT22;8531;48.078;11.968;2023-01-05T09:47:50;10.00;99.90
16829;DHT22;8531;48.078;11.968;2023-01-05T09:50:24;10.00;99.90
16829;DHT22;8531;48.078;11.968;2023-01-05T09:52:53;9.90;99.90
16829;DHT22;8531;48.078;11.968;2023-01-05T09:55:23;9.90;99.90
16829;DHT22;8531;48.078;11.968;2023-01-05T09:57:59;9.90;99.90
16829;DHT22;8531;48.078;11.968;2023-01-05T10:00:28;10.00;99.90
16829;DHT22;8531;48.078;11.968;2023-01-05T10:03:18;10.10;99.90
16829;DHT22;8531;48.078;11.968;2023-01-05T10:05:46;10.10;99.90
16829;DHT22;8531;48.078;11.968;2023-01-05T10:08:17;10.20;99.90
16829;DHT22;8531;48.078;11.968;2023-01-05T10:11:00;10.20;99.90
16829;DHT22;8531;48.078;11.968;2023-01-05T10:14:01;10.30;99.90
16829;DHT22;8531;48.078;11.968;2023-01-05T10:16:29;10.30;99.90
16829;DHT22;8531;48.078;11.968;2023-01-05T10:18:56;10.30;99.90
16829;DHT22;8531;48.078;11.968;2023-01-05T10:21:51;10.40;99.90
16829;DHT22;8531;48.078;11.968;2023-01-05T10:24:45;10.40;99.90
16829;DHT22;8531;48.078;11.968;2023-01-05T10:27:39;10.40;99.90
16829;DHT22;8531;48.078;11.968;2023-01-05T10:35:23;10.60;99.90
16829;DHT22;8531;48.078;11.968;2023-01-05T10:41:09;10.60;99.90
16829;DHT22;8531;48.078;11.968;2023-01-05T10:44:06;10.60;99.90
16829;DHT22;8531;48.078;11.968;2023-01-05T10:46:38;10.60;99.90
16829;DHT22;8531;48.078;11.968;2023-01-05T10:49:06;10.60;99.90
16829;DHT22;8531;48.078;11.968;2023-01-05T10:51:32;10.70;99.90
16829;DHT22;8531;48.078;11.968;2023-01-05T10:54:01;10.70;99.90
16829;DHT22;8531;48.078;11.968;2023-01-05T10:56:28;10.70;99.90
16829;DHT22;8531;48.078;11.968;2023-01-05T10:59:19;10.70;99.90
16829;DHT22;8531;48.078;11.968;2023-01-05T11:01:47;10.70;99.90
16829;DHT22;8531;48.078;11.968;2023-01-05T11:04:19;10.70;99.90
16829;DHT22;8531;48.078;11.968;2023-01-05T11:06:46;10.70;99.90
16829;DHT22;8531;48.078;11.968;2023-01-05T11:09:21;10.60;99.90
16829;DHT22;8531;48.078;11.968;2023-01-05T11:11:57;10.60;99.90
16829;DHT22;8531;48.078;11.968;2023-01-05T11:14:24;10.60;99.90
16829;DHT22;8531;48.078;11.968;2023-01-05T11:16:53;10.50;99.90
16829;DHT22;8531;48.078;11.968;2023-01-05T11:19:29;10.50;99.90
16829;DHT22;8531;48.078;11.968;2023-01-05T11:21:56;10.50;99.90
16829;DHT22;8531;48.078;11.968;2023-01-05T11:24:33;10.60;99.90
16829;DHT22;8531;48.078;11.968;2023-01-05T11:27:21;10.60;99.90
16829;DHT22;8531;48.078;11.968;2023-01-05T11:30:19;10.70;99.90
16829;DHT22;8531;48.078;11.968;2023-01-05T11:32:45;10.70;99.90
16829;DHT22;8531;48.078;11.968;2023-01-05T11:35:27;10.80;99.90
16829;DHT22;8531;48.078;11.968;2023-01-05T11:37:54;10.80;99.90
16829;DHT22;8531;48.078;11.968;2023-01-05T11:40:24;10.80;99.90
16829;DHT22;8531;48.078;11.968;2023-01-05T11:42:51;10.80;99.90
16829;DHT22;8531;48.078;11.968;2023-01-05T11:45:24;10.80;99.90
16829;DHT22;8531;48.078;11.968;2023-01-05T11:47:58;10.80;99.90
16829;DHT22;8531;48.078;11.968;2023-01-05T11:50:30;10.80;99.90
16829;DHT22;8531;48.078;11.968;2023-01-05T11:52:59;10.70;99.90
16829;DHT22;8531;48.078;11.968;2023-01-05T11:55:29;10.60;99.90
16829;DHT22;8531;48.078;11.968;2023-01-05T12:01:00;10.50;99.90
16829;DHT22;8531;48.078;11.968;2023-01-05T12:06:48;10.30;99.90
16829;DHT22;8531;48.078;11.968;2023-01-05T12:16:48;10.10;99.90
16829;DHT22;8531;48.078;11.968;2023-01-05T12:19:37;10.10;99.90
16829;DHT22;8531;48.078;11.968;2023-01-05T12:35:40;10.10;99.90
16829;DHT22;8531;48.078;11.968;2023-01-05T12:49:48;10.10;99.90
16829;DHT22;8531;48.078;11.968;2023-01-05T12:52:39;10.20;99.90
16829;DHT22;8531;48.078;11.968;2023-01-05T12:55:22;10.20;99.90
16829;DHT22;8531;48.078;11.968;2023-01-05T12:57:56;10.20;99.90
16829;DHT22;8531;48.078;11.968;2023-01-05T13:00:25;10.20;99.90
16829;DHT22;8531;48.078;11.968;2023-01-05T13:03:09;10.20;99.90
16829;DHT22;8531;48.078;11.968;2023-01-05T13:06:05;10.30;99.90
16829;DHT22;8531;48.078;11.968;2023-01-05T13:11:33;10.40;99.90
16829;DHT22;8531;48.078;11.968;2023-01-05T13:14:12;10.50;99.90
16829;DHT22;8531;48.078;11.968;2023-01-05T13:16:42;10.50;99.90
16829;DHT22;8531;48.078;11.968;2023-01-05T13:21:47;10.60;99.90
16829;DHT22;8531;48.078;11.968;2023-01-05T13:26:53;10.60;99.90
16829;DHT22;8531;48.078;11.968;2023-01-05T13:29:46;10.60;99.90
16829;DHT22;8531;48.078;11.968;2023-01-05T13:54:04;10.30;99.90
16829;DHT22;8531;48.078;11.968;2023-01-05T13:56:32;10.20;99.90
16829;DHT22;8531;48.078;11.968;2023-01-05T14:01:44;10.10;99.90
16829;DHT22;8531;48.078;11.968;2023-01-05T14:04:30;10.10;99.90
16829;DHT22;8531;48.078;11.968;2023-01-05T14:07:14;10.10;99.90
16829;DHT22;8531;48.078;11.968;2023-01-05T14:09:50;10.00;99.90
16829;DHT22;8531;48.078;11.968;2023-01-05T14:15:46;9.90;99.90
16829;DHT22;8531;48.078;11.968;2023-01-05T14:17:55;9.90;99.90
16829;DHT22;8531;48.078;11.968;2023-01-05T14:20:48;9.90;99.90
16829;DHT22;8531;48.078;11.968;2023-01-05T14:30:42;9.90;99.90
16829;DHT22;8531;48.078;11.968;2023-01-05T14:33:08;9.90;99.90
16829;DHT22;8531;48.078;11.968;2023-01-05T14:35:35;9.90;99.90
16829;DHT22;8531;48.078;11.968;2023-01-05T14:38:14;9.90;99.90
16829;DHT22;8531;48.078;11.968;2023-01-05T14:40:50;9.80;99.90
16829;DHT22;8531;48.078;11.968;2023-01-05T14:43:21;9.80;99.90
16829;DHT22;8531;48.078;11.968;2023-01-05T14:46:01;9.70;99.90
16829;DHT22;8531;48.078;11.968;2023-01-05T14:51:22;9.50;99.90
16829;DHT22;8531;48.078;11.968;2023-01-05T14:53:50;9.40;99.90
16829;DHT22;8531;48.078;11.968;2023-01-05T14:56:27;9.30;99.90
16829;DHT22;8531;48.078;11.968;2023-01-05T15:01:48;9.30;99.90
16829;DHT22;8531;48.078;11.968;2023-01-05T15:04:22;9.20;99.90
16829;DHT22;8531;48.078;11.968;2023-01-05T15:12:36;9.10;99.90
16829;DHT22;8531;48.078;11.968;2023-01-05T15:26:15;8.90;99.90
16829;DHT22;8531;48.078;11.968;2023-01-05T15:29:16;8.90;99.90
16829;DHT22;8531;48.078;11.968;2023-01-05T15:31:57;8.80;99.90
16829;DHT22;8531;48.078;11.968;2023-01-05T15:37:33;8.80;99.90
16829;DHT22;8531;48.078;11.968;2023-01-05T15:40:03;8.80;99.90
16829;DHT22;8531;48.078;11.968;2023-01-05T15:42:39;8.80;99.90
16829;DHT22;8531;48.078;11.968;2023-01-05T15:45:32;8.80;99.90
16829;DHT22;8531;48.078;11.968;2023-01-05T15:48:06;8.80;99.90
16829;DHT22;8531;48.078;11.968;2023-01-05T15:50:59;8.90;99.90
16829;DHT22;8531;48.078;11.968;2023-01-05T15:53:27;8.90;99.90
16829;DHT22;8531;48.078;11.968;2023-01-05T15:55:55;8.90;99.90
16829;DHT22;8531;48.078;11.968;2023-01-05T15:58:22;8.90;99.90
16829;DHT22;8531;48.078;11.968;2023-01-05T16:01:12;8.90;99.90
16829;DHT22;8531;48.078;11.968;2023-01-05T16:03:39;8.90;99.90
16829;DHT22;8531;48.078;11.968;2023-01-05T16:06:20;8.90;99.90
16829;DHT22;8531;48.078;11.968;2023-01-05T16:08:49;8.90;99.90
16829;DHT22;8531;48.078;11.968;2023-01-05T16:11:21;8.90;99.90
16829;DHT22;8531;48.078;11.968;2023-01-05T16:14:01;8.80;99.90
16829;DHT22;8531;48.078;11.968;2023-01-05T16:16:41;8.80;99.90
16829;DHT22;8531;48.078;11.968;2023-01-05T16:26:56;8.90;99.90
16829;DHT22;8531;48.078;11.968;2023-01-05T16:29:37;8.90;99.90
16829;DHT22;8531;48.078;11.968;2023-01-05T16:32:04;8.90;99.90
16829;DHT22;8531;48.078;11.968;2023-01-05T16:34:49;8.90;99.90
16829;DHT22;8531;48.078;11.968;2023-01-05T16:37:17;8.90;99.90
16829;DHT22;8531;48.078;11.968;2023-01-05T16:39:44;8.80;99.90
16829;DHT22;8531;48.078;11.968;2023-01-05T16:42:20;8.80;99.90
16829;DHT22;8531;48.078;11.968;2023-01-05T16:45:20;8.80;99.90
16829;DHT22;8531;48.078;11.968;2023-01-05T16:47:46;8.80;99.90
16829;DHT22;8531;48.078;11.968;2023-01-05T16:52:51;8.80;99.90
16829;DHT22;8531;48.078;11.968;2023-01-05T16:55:31;8.80;99.90
16829;DHT22;8531;48.078;11.968;2023-01-05T16:57:58;8.80;99.90
16829;DHT22;8531;48.078;11.968;2023-01-05T17:02:54;8.80;99.90
16829;DHT22;8531;48.078;11.968;2023-01-05T17:05:28;8.80;99.90
16829;DHT22;8531;48.078;11.968;2023-01-05T17:08:08;8.70;99.90
16829;DHT22;8531;48.078;11.968;2023-01-05T17:10:39;8.80;99.90
16829;DHT22;8531;48.078;11.968;2023-01-05T17:13:11;8.80;99.90
16829;DHT22;8531;48.078;11.968;2023-01-05T17:15:42;8.80;99.90
16829;DHT22;8531;48.078;11.968;2023-01-05T17:18:27;8.80;99.90
16829;DHT22;8531;48.078;11.968;2023-01-05T17:20:55;8.80;99.90
16829;DHT22;8531;48.078;11.968;2023-01-05T17:23:31;8.70;99.90
16829;DHT22;8531;48.078;11.968;2023-01-05T17:26:02;8.70;99.90
16829;DHT22;8531;48.078;11.968;2023-01-05T17:28:29;8.70;99.90
16829;DHT22;8531;48.078;11.968;2023-01-05T17:30:54;8.70;99.90
16829;DHT22;8531;48.078;11.968;2023-01-05T17:33:20;8.70;99.90
16829;DHT22;8531;48.078;11.968;2023-01-05T17:35:47;8.70;99.90
16829;DHT22;8531;48.078;11.968;2023-01-05T17:38:13;8.70;99.90
16829;DHT22;8531;48.078;11.968;2023-01-05T17:40:39;8.70;99.90
16829;DHT22;8531;48.078;11.968;2023-01-05T17:43:05;8.70;99.90
16829;DHT22;8531;48.078;11.968;2023-01-05T17:45:32;8.70;99.90
16829;DHT22;8531;48.078;11.968;2023-01-05T17:47:58;8.70;99.90
16829;DHT22;8531;48.078;11.968;2023-01-05T17:50:26;8.70;99.90
16829;DHT22;8531;48.078;11.968;2023-01-05T17:52:54;8.70;99.90
16829;DHT22;8531;48.078;11.968;2023-01-05T17:55:20;8.70;99.90
16829;DHT22;8531;48.078;11.968;2023-01-05T17:57:46;8.70;99.90
16829;DHT22;8531;48.078;11.968;2023-01-05T18:00:14;8.70;99.90
16829;DHT22;8531;48.078;11.968;2023-01-05T18:02:41;8.70;99.90
16829;DHT22;8531;48.078;11.968;2023-01-05T18:05:08;8.70;99.90
16829;DHT22;8531;48.078;11.968;2023-01-05T18:07:34;8.60;99.90
16829;DHT22;8531;48.078;11.968;2023-01-05T18:10:00;8.60;99.90
16829;DHT22;8531;48.078;11.968;2023-01-05T18:12:26;8.60;99.90
16829;DHT22;8531;48.078;11.968;2023-01-05T18:14:52;8.60;99.90
16829;DHT22;8531;48.078;11.968;2023-01-05T18:17:19;8.60;99.90
16829;DHT22;8531;48.078;11.968;2023-01-05T18:19:45;8.70;99.90
16829;DHT22;8531;48.078;11.968;2023-01-05T18:22:11;8.70;99.90
16829;DHT22;8531;48.078;11.968;2023-01-05T18:24:41;8.60;99.90
16829;DHT22;8531;48.078;11.968;2023-01-05T18:27:07;8.70;99.90
16829;DHT22;8531;48.078;11.968;2023-01-05T18:29:33;8.70;99.90
16829;DHT22;8531;48.078;11.968;2023-01-05T18:31:59;8.70;99.90